• Join FlightAware (Why Join?)
  • Login
  • US Flag 
04:29AM EDT


 

Airport Tracker/Info


-or-


 

Live Flight TrackerFlight Track Log ✈ N201LH ✈ 19-Oct-2013 ✈ KSYR - KHYX

Flight Track Log - Related Links

Times and Time Zones

All times are in EDT time to prevent confusion due to time zone crossing. See the N201LH flight status page for this flight to view local times or setup timezone preferences in your user account.

Time Position Orientation Groundspeed Altitude Reporting Facility
EDT Latitude Longitude Course Direction KTS MPH feet Rate Location/Type
01:46PM 43.1100 -76.1178 263° West 56 64 900  Level Boston Center
01:47PM 43.1069 -76.1517 263° West 102 117 1,800 780 Climbing Boston Center
01:48PM 43.1053 -76.2028 267° West 117 135 2,600 660 Climbing Boston Center
01:49PM 43.1039 -76.2425 267° West 112 129 3,200 600 Climbing Boston Center
01:50PM 43.1025 -76.2853 267° West 113 130 3,900 360 Climbing Boston Center
01:51PM 43.0989 -76.3333 264° West 130 150 4,000  Climbing Boston Center
01:52PM 43.0950 -76.3872 264° West 149 171 4,000  Level Boston Center
01:53PM 43.0928 -76.4439 267° West 148 170 4,000  Level Boston Center
01:54PM 43.0872 -76.4892 260° West 145 167 4,000  Level Boston Center
01:55PM 43.0850 -76.5458 267° West 141 162 4,000  Level Boston Center
01:56PM 43.0833 -76.5969 267° West 142 163 4,000  Level Boston Center
01:57PM 43.0789 -76.6347 261° West 142 163 4,000  Level Cleveland Center
01:58PM 43.0744 -76.6989 265° West 142 163 4,100  Climbing Cleveland Center
01:59PM 43.0689 -76.7542 262° West 144 166 4,100  Level Cleveland Center
02:00PM 43.0661 -76.8069 266° West 143 165 4,100  Level Cleveland Center
02:01PM 43.0622 -76.8606 264° West 142 163 4,100  Level Cleveland Center
02:02PM 43.0581 -76.9153 264° West 143 165 4,100 -120 Level Cleveland Center
02:03PM 43.0594 -76.9314 277° West 145 167 4,000 -120 Descending Cleveland Center
02:03PM 43.0539 -76.9703 259° West 145 167 4,000  Level Cleveland Center
02:04PM 43.0542 -76.9850 271° West 145 167 4,000  Level Cleveland Center
02:04PM 43.0506 -77.0342 264° West 143 165 4,000  Level Cleveland Center
02:05PM 43.0511 -77.0392 279° West 142 163 4,000  Level Cleveland Center
02:06PM 43.0469 -77.0989 265° West 143 165 4,000  Level Cleveland Center
02:06PM 43.0422 -77.1408 261° West 142 163 4,000  Level Cleveland Center
02:07PM 43.0417 -77.1525 266° West 145 167 4,000  Level Cleveland Center
02:07PM 43.0386 -77.1947 264° West 143 165 4,000  Level Cleveland Center
02:08PM 43.0386 -77.2064 270° West 143 165 4,000  Level Cleveland Center
02:09PM 43.0353 -77.2606 265° West 143 165 4,000  Level Cleveland Center
02:10PM 43.0308 -77.3031 262° West 144 166 4,000  Level Cleveland Center
02:10PM 43.0319 -77.3147 277° West 144 166 4,000  Level Cleveland Center
02:11PM 43.0278 -77.3594 263° West 147 169 4,000  Level Cleveland Center
02:11PM 43.0283 -77.3717 274° West 150 173 4,000  Level Cleveland Center
02:12PM 43.0225 -77.4258 262° West 148 170 4,000  Level Cleveland Center
02:12PM 43.0225 -77.4278 270° West 149 171 4,000  Level Cleveland Center
02:13PM 43.0183 -77.4825 264° West 149 171 4,000  Level Cleveland Center
02:13PM 43.0189 -77.4847 289° West 151 174 4,000  Level Cleveland Center
02:14PM 43.0144 -77.5444 264° West 148 170 4,000  Level Cleveland Center
02:15PM 43.0108 -77.6011 265° West 146 168 4,000  Level Cleveland Center
02:15PM 43.0097 -77.5942 102° East 149 171 4,000  Level Cleveland Center
02:16PM 43.0053 -77.6483 264° West 145 167 4,000  Level Cleveland Center
02:17PM 43.0014 -77.7117 265° West 146 168 4,000  Level Cleveland Center
02:17PM 43.0000 -77.7139 229° Southwest 146 168 4,000  Level Cleveland Center
02:18PM 42.9978 -77.7656 267° West 137 158 4,000  Level Cleveland Center
02:18PM 42.9972 -77.7664 228° Southwest 142 163 4,000  Level Cleveland Center
02:19PM 42.9947 -77.8169 266° West 135 155 4,000  Level Cleveland Center
02:19PM 42.9931 -77.8167 173° South 136 157 4,000  Level Cleveland Center
02:20PM 42.9894 -77.8700 265° West 139 160 4,000  Level Cleveland Center
02:21PM 42.9861 -77.9214 265° West 140 161 4,000  Level Cleveland Center
02:21PM 42.9856 -77.9217 200° South 139 160 4,000  Level Cleveland Center
02:22PM 42.9811 -77.9739 263° West 139 160 4,000  Level Cleveland Center
02:23PM 42.9764 -78.0378 264° West 140 161 4,000  Level Cleveland Center
02:24PM 42.9719 -78.0894 263° West 140 161 4,100  Climbing Cleveland Center
02:25PM 42.9675 -78.1453 264° West 143 165 4,100  Level Cleveland Center
02:26PM 42.9633 -78.2011 264° West 141 162 4,100  Level Cleveland Center
02:27PM 42.9592 -78.2583 264° West 145 167 4,100  Level Cleveland Center
02:28PM 42.9561 -78.3161 266° West 146 168 4,100 -60 Level Cleveland Center
02:29PM 42.9506 -78.3683 262° West 145 167 4,000 -60 Descending Cleveland Center
02:30PM 42.9467 -78.4256 265° West 146 168 4,000  Level Cleveland Center
02:31PM 42.9406 -78.4817 262° West 146 168 4,100  Climbing Cleveland Center
02:32PM 42.9358 -78.5389 264° West 145 167 4,000  Descending Cleveland Center
02:33PM 42.9325 -78.5969 266° West 147 169 4,100  Climbing Cleveland Center
02:34PM 42.9333 -78.6667 271° West 147 169 4,100 -60 Level Buffalo TRACON
02:35PM 42.9333 -78.7167 270° West 152 175 4,000  Descending Buffalo TRACON
02:37PM 42.9500 -78.7833 289° West 154 177 4,100  Climbing Buffalo TRACON
02:38PM 42.9500 -78.8333 270° West 154 177 4,100  Level Buffalo TRACON
02:39PM 42.9500 -78.9000 270° West 151 174 4,100  Level Buffalo TRACON
02:40PM 42.9667 -78.9500 295° West 148 170 4,100 -60 Level Buffalo TRACON
02:41PM 42.9667 -79.0000 270° West 144 166 4,000 -60 Descending Buffalo TRACON
02:41PM 42.9686 -79.0536 273° West 145 167 4,000  Level Cleveland Center
02:42PM 42.9733 -79.1097 277° West 144 166 4,000  Level Cleveland Center
02:45PM 42.9799 -79.2079 275° West  Level FlightAware Approximate
02:49PM 43.0000 -79.4667 280° West 136 157 4,000  Level Buffalo TRACON
02:50PM 43.0167 -79.5167 295° West 138 159 4,100  Climbing Buffalo TRACON
02:51PM 43.0167 -79.5667 270° West 141 162 4,100  Level Buffalo TRACON
02:52PM 43.0049 -79.5798 276° West  Level FlightAware Approximate
02:52PM 43.0167 -79.6167 270° West 140 161 4,100  Level Toronto Center
02:53PM 43.0090 -79.6328 276° West  Level FlightAware Approximate
02:53PM 43.0167 -79.6500 270° West 140 161 4,000  Level Toronto Center
02:54PM 43.0131 -79.6858 276° West  Level FlightAware Approximate
02:54PM 43.0167 -79.7167 270° West 140 161 4,000  Level Toronto Center
02:55PM 43.0173 -79.7388 280° West  Level FlightAware Approximate
02:55PM 43.0333 -79.7667 295° West 140 161 4,000  Level Toronto Center
02:56PM 43.0333 -79.8167 270° West 140 161 4,000  Level Toronto Center
02:57PM 43.0333 -79.8833 270° West 140 161 4,100  Climbing Toronto Center
02:58PM 43.0333 -79.9333 270° West 140 161 4,000 -60 Descending Toronto Center
02:59PM 43.0500 -79.9833 295° West 140 161 4,000  Level Toronto Center
03:00PM 43.0500 -80.0167 270° West 140 161 4,000  Level Toronto Center
03:01PM 43.0500 -80.0833 270° West 140 161 4,000  Level Toronto Center
03:02PM 43.0500 -80.1333 270° West 140 161 4,000  Level Toronto Center
03:03PM 43.0500 -80.2000 270° West 140 161 4,100  Climbing Toronto Center
03:04PM 43.0500 -80.2500 270° West 140 161 4,000 -60 Descending Toronto Center
03:05PM 43.0500 -80.3000 270° West 130 150 4,000  Level Toronto Center
03:06PM 43.0500 -80.3333 270° West 130 150 4,000  Level Toronto Center
03:07PM 43.0500 -80.3833 270° West 130 150 4,000  Level Toronto Center
03:08PM 43.0500 -80.4500 270° West 130 150 4,100  Climbing Toronto Center
03:09PM 43.0500 -80.5000 270° West 130 150 4,000 -60 Descending Toronto Center
03:10PM 43.0500 -80.5500 270° West 130 150 4,000  Level Toronto Center
03:11PM 43.0500 -80.5833 270° West 130 150 4,100  Climbing Toronto Center
03:12PM 43.0500 -80.6333 270° West 130 150 4,000 -60 Descending Toronto Center
03:13PM 43.0500 -80.6833 270° West 130 150 4,000  Level Toronto Center
03:14PM 43.0500 -80.7500 270° West 130 150 4,000  Level Toronto Center
03:15PM 43.0500 -80.8000 270° West 130 150 4,100  Climbing Toronto Center
03:16PM 43.0333 -80.8500 246° West 130 150 4,000  Descending Toronto Center
03:17PM 43.0167 -80.8833 236° Southwest 130 150 4,100  Climbing Toronto Center
03:18PM 43.0167 -80.9333 270° West 140 161 4,100  Level Toronto Center
03:19PM 43.0167 -81.0000 270° West 140 161 4,100  Level Toronto Center
03:20PM 43.0167 -81.0500 270° West 140 161 4,100  Level Toronto Center
03:22PM 43.0167 -81.1333 270° West 140 161 4,100  Level Toronto Center
03:23PM 43.0333 -81.2000 289° West 130 150 4,100  Level Toronto Center
03:24PM 43.0333 -81.2500 270° West 140 161 4,100  Level Toronto Center
03:25PM 43.0500 -81.3000 295° West 140 161 4,100  Level Toronto Center
03:26PM 43.0500 -81.3500 270° West 140 161 4,100  Level Toronto Center
03:27PM 43.0667 -81.4167 289° West 140 161 4,100  Level Toronto Center
03:28PM 43.0667 -81.4667 270° West 140 161 4,100  Level Toronto Center
03:29PM 43.0833 -81.5000 304° West 140 161 4,100 -60 Level Toronto Center
03:30PM 43.0833 -81.5500 270° West 140 161 4,000 -60 Descending Toronto Center
03:31PM 43.1000 -81.6000 295° West 130 150 4,000  Level Toronto Center
03:32PM 43.1000 -81.6667 270° West 130 150 4,000  Level Toronto Center
03:33PM 43.1167 -81.7167 295° West 130 150 4,000  Level Toronto Center
03:34PM 43.1167 -81.7500 270° West 130 150 4,000  Level Toronto Center
03:35PM 43.1333 -81.8000 295° West 130 150 4,000  Level Toronto Center
03:36PM 43.1333 -81.8500 270° West 130 150 4,000  Level Toronto Center
03:37PM 43.1500 -81.9000 295° West 130 150 4,000  Level Toronto Center
03:38PM 43.1333 -81.9333 236° Southwest 130 150 4,000  Level Toronto Center
03:39PM 43.1333 -82.0167 270° West 130 150 4,000  Level Toronto Center
03:40PM 43.1500 -82.0500 304° West 130 150 4,000  Level Toronto Center
03:41PM 43.1500 -82.1000 270° West 130 150 4,000  Level Toronto Center
03:42PM 43.1667 -82.1500 295° West 130 150 4,000  Level Toronto Center
03:43PM 43.1667 -82.2000 270° West 130 150 4,000  Level Toronto Center
03:44PM 43.1833 -82.2333 304° West 130 150 4,000  Level Toronto Center
03:45PM 43.1833 -82.2833 270° West 130 150 4,000  Level Toronto Center
03:46PM 43.2000 -82.3500 289° West 130 150 4,000  Level Toronto Center
03:47PM 43.2000 -82.4000 270° West 130 150 4,000  Level Toronto Center
03:48PM 43.2167 -82.4500 295° West 130 150 4,000  Level Toronto Center
03:49PM 43.2222 -82.4869 282° West 181 208 4,000  Level Cleveland Center
03:50PM 43.2303 -82.5386 282° West 141 162 4,000  Level Cleveland Center
03:51PM 43.2375 -82.5886 281° West 139 160 4,000  Level Cleveland Center
03:52PM 43.2469 -82.6494 282° West 137 158 4,000  Level Cleveland Center
03:53PM 43.2533 -82.6983 280° West 133 153 4,000  Level Cleveland Center
03:54PM 43.2603 -82.7522 280° West 134 154 4,000  Level Cleveland Center
03:55PM 43.2686 -82.8014 283° West 135 155 4,000  Level Cleveland Center
03:56PM 43.2778 -82.8564 283° West 138 159 4,000  Level Cleveland Center
03:57PM 43.2850 -82.9069 281° West 137 158 4,000  Level Cleveland Center
03:58PM 43.2944 -82.9608 284° West 136 157 4,000  Level Cleveland Center
03:59PM 43.3022 -83.0122 282° West 138 159 4,000  Level Cleveland Center
04:00PM 43.3114 -83.0686 283° West 142 163 4,000  Level Cleveland Center
04:01PM 43.3194 -83.1181 283° West 136 157 4,000 -60 Level Cleveland Center
04:02PM 43.3275 -83.1736 281° West 139 160 3,900 -300 Descending Cleveland Center
04:03PM 43.3375 -83.2267 285° West 144 166 3,500 -300 Descending Cleveland Center
04:05PM 43.3461 -83.2886 281° West 152 175 3,300 -180 Descending Cleveland Center
04:06PM 43.3544 -83.3419 282° West 146 168 3,200 -120 Descending Cleveland Center
04:07PM 43.3625 -83.3986 281° West 143 165 3,100 -120 Descending Cleveland Center
04:08PM 43.3700 -83.4503 281° West 141 162 3,000 -60 Descending Cleveland Center
04:09PM 43.3792 -83.5064 283° West 141 162 3,000  Level Cleveland Center
04:10PM 43.3869 -83.5603 281° West 143 165 3,000 -60 Level Cleveland Center
04:11PM 43.3961 -83.6169 283° West 142 163 2,900 -120 Descending Cleveland Center
04:13PM 43.4076 -83.7099 280° West  Level FlightAware Approximate
04:20PM 43.4333 -83.8500 289° West  Level FlightAware Approximate
04:21PM 43.4334 -83.8623 289° West  Level Estimated